createdAt,value
2023-03-05T07:37:41.521Z,14.45
2023-03-05T07:43:45.668Z,14.75
2023-03-05T07:49:48.784Z,14.43
2023-03-05T07:55:53.331Z,14.15
2023-03-05T08:01:56.541Z,13.88
2023-03-05T08:07:59.590Z,14.00
2023-03-05T08:14:02.733Z,14.11
2023-03-05T08:20:10.505Z,13.54
2023-03-05T08:26:15.182Z,13.88
2023-03-05T08:32:18.288Z,13.84
2023-03-05T08:38:21.257Z,13.94
2023-03-05T08:44:24.215Z,13.90
2023-03-05T08:50:27.280Z,14.31
2023-03-05T08:56:31.437Z,14.67
2023-03-05T09:02:35.405Z,14.81
2023-03-05T09:08:39.018Z,14.36
2023-03-05T09:14:42.919Z,14.50
2023-03-05T09:20:46.052Z,14.54
2023-03-05T09:26:49.065Z,14.69
2023-03-05T09:32:52.355Z,14.47
2023-03-05T09:38:55.692Z,15.00
2023-03-05T09:45:20.027Z,14.67
2023-03-05T09:51:26.361Z,14.59
2023-03-05T09:57:39.454Z,14.71
2023-03-05T10:04:07.159Z,15.11
2023-03-05T10:10:14.363Z,15.10
2023-03-05T10:16:56.251Z,15.45
2023-03-05T10:22:59.379Z,15.25
2023-03-05T10:29:17.606Z,14.68
2023-03-05T10:35:32.695Z,14.94
2023-03-05T10:42:02.570Z,15.00
2023-03-05T10:48:13.595Z,15.00
2023-03-05T10:54:25.390Z,14.53
2023-03-05T11:00:30.060Z,14.07
2023-03-05T11:06:37.546Z,13.44
2023-03-05T11:12:40.650Z,13.36
2023-03-05T11:18:49.639Z,13.16
2023-03-05T11:25:22.681Z,13.26
2023-03-05T11:31:30.733Z,13.08
2023-03-05T11:37:42.306Z,12.93
2023-03-05T11:43:45.605Z,12.79
2023-03-05T11:49:51.393Z,12.75
2023-03-05T11:56:13.288Z,12.71
2023-03-05T12:02:22.847Z,12.27
2023-03-05T12:08:33.408Z,12.79
2023-03-05T12:14:46.300Z,12.35
2023-03-05T12:21:08.409Z,12.77
2023-03-05T12:27:15.785Z,13.23
2023-03-05T12:33:38.394Z,13.22
2023-03-05T12:39:51.007Z,12.76
2023-03-05T12:46:23.215Z,13.87
2023-03-05T12:52:31.942Z,14.17
2023-03-05T12:58:42.185Z,14.76
2023-03-05T13:04:47.750Z,14.27
2023-03-05T13:11:18.907Z,14.29
2023-03-05T13:17:29.313Z,13.71
2023-03-05T13:23:34.127Z,14.07
2023-03-05T13:29:52.585Z,14.43
2023-03-05T13:35:56.126Z,14.47
2023-03-05T13:42:14.659Z,14.35
2023-03-05T13:48:20.722Z,14.83
2023-03-05T13:54:25.226Z,14.88
2023-03-05T14:00:35.674Z,14.63
2023-03-05T14:07:03.080Z,14.84
2023-03-05T14:13:13.164Z,14.78
2023-03-05T14:19:36.884Z,15.29
2023-03-05T14:25:40.569Z,14.05
2023-03-05T14:31:51.441Z,13.93
2023-03-05T14:37:57.121Z,14.12
2023-03-05T14:44:09.782Z,13.57
2023-03-05T14:50:20.149Z,13.91
2023-03-05T14:56:28.135Z,13.66
2023-03-05T15:02:31.215Z,13.43
2023-03-05T15:08:40.933Z,13.53
2023-03-05T15:14:46.523Z,13.64
2023-03-05T15:20:53.036Z,13.26
2023-03-05T15:26:55.883Z,13.52
2023-03-05T15:33:03.578Z,13.21
2023-03-05T15:39:07.956Z,13.83
2023-03-05T15:45:11.290Z,14.04
2023-03-05T15:51:14.220Z,13.96
2023-03-05T15:57:17.514Z,13.97
2023-03-05T16:03:20.944Z,14.02
2023-03-05T16:09:27.034Z,14.07
2023-03-05T16:15:33.893Z,13.96
2023-03-05T16:21:39.719Z,13.63
2023-03-05T16:27:43.402Z,13.48
2023-03-05T16:33:48.146Z,13.33
2023-03-05T16:39:51.675Z,12.32
2023-03-05T16:45:56.910Z,12.39
2023-03-05T16:52:06.185Z,12.70
2023-03-05T16:58:19.718Z,12.77
2023-03-05T17:04:25.356Z,12.57
2023-03-05T17:10:28.882Z,13.00
2023-03-05T17:16:32.340Z,13.16
2023-03-05T17:22:35.666Z,13.12
2023-03-05T17:28:40.692Z,13.29
2023-03-05T17:34:47.012Z,13.28
2023-03-05T17:40:59.093Z,12.88
2023-03-05T17:47:02.511Z,12.64
2023-03-05T17:53:07.984Z,12.98
2023-03-05T17:59:11.656Z,12.84
2023-03-05T18:05:15.622Z,11.74
2023-03-05T18:11:18.933Z,12.13
2023-03-05T18:17:24.840Z,12.61
2023-03-05T18:23:33.168Z,11.46
2023-03-05T18:29:37.406Z,12.33
2023-03-05T18:35:40.919Z,12.46
2023-03-05T18:41:44.594Z,12.48
2023-03-05T18:47:49.237Z,12.39
2023-03-05T18:53:56.135Z,12.78
2023-03-05T19:00:04.078Z,12.30
2023-03-05T19:06:11.544Z,12.86
2023-03-05T19:12:15.963Z,13.10
2023-03-05T19:18:28.758Z,12.89
2023-03-05T19:24:38.534Z,12.93
2023-03-05T19:30:53.515Z,12.99
2023-03-05T19:37:16.528Z,12.82
2023-03-05T19:43:38.208Z,12.91
2023-03-05T19:49:49.411Z,12.96
2023-03-05T19:55:58.237Z,13.10
2023-03-05T20:02:01.713Z,13.26
2023-03-05T20:08:07.073Z,13.27
2023-03-05T20:14:14.067Z,13.12
2023-03-05T20:20:21.286Z,13.04
2023-03-05T20:26:32.489Z,13.14
2023-03-05T20:32:45.506Z,13.12
2023-03-05T20:38:53.861Z,13.04
2023-03-05T20:44:57.312Z,11.64
2023-03-05T20:51:22.853Z,11.29
2023-03-05T20:57:25.927Z,10.81
2023-03-05T21:03:29.990Z,11.39
2023-03-05T21:09:33.012Z,11.55
2023-03-05T21:15:36.052Z,10.88
2023-03-05T21:21:44.734Z,10.79
2023-03-05T21:28:01.710Z,11.14
2023-03-05T21:34:04.712Z,11.79
2023-03-05T21:40:10.431Z,11.88
2023-03-05T21:46:15.533Z,11.51
2023-03-05T21:52:19.343Z,11.80
2023-03-05T21:58:24.338Z,11.96
2023-03-05T22:04:28.954Z,12.13
2023-03-05T22:10:32.775Z,12.02
2023-03-05T22:16:36.548Z,12.04
2023-03-05T22:22:39.991Z,12.11
2023-03-05T22:28:42.865Z,12.17
2023-03-05T22:34:45.817Z,12.10
2023-03-05T22:40:49.564Z,12.18
2023-03-05T22:46:52.635Z,12.42
2023-03-05T22:52:55.747Z,12.19
2023-03-05T22:58:58.799Z,12.36
2023-03-05T23:05:03.476Z,12.47
2023-03-05T23:11:11.019Z,12.28
2023-03-05T23:17:15.278Z,12.06
2023-03-05T23:23:18.105Z,12.45
2023-03-05T23:29:21.066Z,12.33
2023-03-05T23:35:34.876Z,12.31
2023-03-05T23:41:37.741Z,12.31
2023-03-05T23:47:43.452Z,12.35
2023-03-05T23:53:46.544Z,12.65
2023-03-05T23:59:51.570Z,12.61
